createdAt,value
2016-05-07T00:00:12.793Z,54.26
2016-05-07T00:01:12.843Z,54.52
2016-05-07T00:02:12.876Z,54.33
2016-05-07T00:03:12.911Z,54.64
2016-05-07T00:04:12.945Z,54.9
2016-05-07T00:05:13.009Z,55.57
2016-05-07T00:06:13.028Z,54.8
2016-05-07T00:07:13.062Z,54.55
2016-05-07T00:08:13.112Z,54.83
2016-05-07T00:09:13.145Z,55.79
2016-05-07T00:10:13.180Z,54.16
2016-05-07T00:11:13.213Z,54.36
2016-05-07T00:12:13.248Z,54.55
2016-05-07T00:13:13.281Z,54.64
2016-05-07T00:14:13.158Z,54.83
2016-05-07T00:15:13.350Z,54.74
2016-05-07T00:16:13.399Z,55.29
2016-05-07T00:17:13.463Z,55.47
2016-05-07T00:18:13.466Z,55.47
2016-05-07T00:19:13.516Z,55.67
2016-05-07T00:20:13.535Z,56.15
2016-05-07T00:21:13.585Z,56.43
2016-05-07T00:22:13.477Z,56.34
2016-05-07T00:23:13.496Z,56.91
2016-05-07T00:24:13.701Z,56.82
2016-05-07T00:25:13.735Z,56.82
2016-05-07T00:26:13.613Z,57.48
2016-05-07T00:27:13.804Z,57.58
2016-05-07T00:28:13.868Z,57.58
2016-05-07T00:29:13.887Z,57.46
2016-05-07T00:30:13.920Z,57.58
2016-05-07T00:31:13.955Z,57.39
2016-05-07T00:32:14.020Z,57.1
2016-05-07T00:33:14.038Z,57.1
2016-05-07T00:34:14.072Z,57.68
2016-05-07T00:35:14.122Z,57.58
2016-05-07T00:36:14.140Z,57.48
2016-05-07T00:37:14.173Z,57.29
2016-05-07T00:38:14.224Z,57.39
2016-05-07T00:39:14.258Z,57.58
2016-05-07T00:40:14.292Z,56.91
2016-05-07T00:41:14.325Z,56.62
2016-05-07T00:42:14.219Z,57.39
2016-05-07T00:43:14.252Z,58.15
2016-05-07T00:44:14.442Z,58.06
2016-05-07T00:45:14.320Z,58.8
2016-05-07T00:46:14.527Z,58.41
2016-05-07T00:47:14.560Z,58.89
2016-05-07T00:48:14.594Z,58.51
2016-05-07T00:49:14.628Z,58.61
2016-05-07T00:50:14.662Z,58.7
2016-05-07T00:51:14.540Z,59.18
2016-05-07T00:52:14.746Z,58.41
2016-05-07T00:53:14.795Z,59.01
2016-05-07T00:54:14.657Z,58.98
2016-05-07T00:55:14.847Z,59.47
2016-05-07T00:56:14.897Z,59.08
2016-05-07T00:57:14.932Z,59.08
2016-05-07T00:58:14.808Z,59.75
2016-05-07T00:59:14.999Z,59.37
2016-05-07T01:00:15.048Z,60.04
2016-05-07T01:01:15.098Z,60.52
2016-05-07T01:02:15.115Z,60.61
2016-05-07T01:03:15.150Z,60.71
2016-05-07T01:04:15.200Z,61.47
2016-05-07T01:05:15.218Z,61.47
2016-05-07T01:06:15.252Z,60.99
2016-05-07T01:07:15.286Z,61.28
2016-05-07T01:08:15.336Z,61.09
2016-05-07T01:09:15.213Z,61.28
2016-05-07T01:10:15.247Z,61.09
2016-05-07T01:11:15.437Z,61.28
2016-05-07T01:12:15.393Z,61.28
2016-05-07T01:13:15.520Z,61.57
2016-05-07T01:14:15.398Z,60.8
2016-05-07T01:15:15.589Z,62.04
2016-05-07T01:16:15.638Z,61.09
2016-05-07T01:17:15.672Z,60.71
2016-05-07T01:18:15.706Z,60.42
2016-05-07T01:19:15.740Z,60.06
2016-05-07T01:20:15.774Z,59.84
2016-05-07T01:21:15.823Z,60.06
2016-05-07T01:22:15.858Z,60.71
2016-05-07T01:23:15.891Z,61.19
2016-05-07T01:24:15.925Z,61.19
2016-05-07T01:25:15.802Z,60.42
2016-05-07T01:26:15.994Z,60.33
2016-05-07T01:27:16.042Z,60.04
2016-05-07T01:28:16.061Z,60.33
2016-05-07T01:29:16.127Z,60.55
2016-05-07T01:30:16.145Z,60.71
2016-05-07T01:31:16.193Z,61.28
2016-05-07T01:32:16.229Z,60.71
2016-05-07T01:33:16.246Z,60.42
2016-05-07T01:34:16.281Z,61.47
2016-05-07T01:35:16.330Z,61.95
2016-05-07T01:36:16.364Z,62.33
2016-05-07T01:37:16.398Z,62.04
2016-05-07T01:38:16.447Z,62.71
2016-05-07T01:39:16.481Z,63.16
2016-05-07T01:40:16.359Z,63.45
2016-05-07T01:41:16.430Z,63.64
2016-05-07T01:42:16.658Z,63.29
2016-05-07T01:43:16.614Z,63.1
2016-05-07T01:44:17.801Z,63.07
2016-05-07T01:45:16.538Z,63
2016-05-07T01:46:16.728Z,63.29
2016-05-07T01:47:16.762Z,63.1
2016-05-07T01:48:16.812Z,62.43
2016-05-07T01:49:16.829Z,62.81
2016-05-07T01:50:16.878Z,63.39
2016-05-07T01:51:16.913Z,63.83
2016-05-07T01:52:16.947Z,63.83
2016-05-07T01:53:16.996Z,63.64
2016-05-07T01:54:17.015Z,63.35
2016-05-07T01:55:16.908Z,63.19
2016-05-07T01:56:17.098Z,62.97
2016-05-07T01:57:16.976Z,63.19
2016-05-07T01:58:17.166Z,62.9
2016-05-07T01:59:17.200Z,63.83
2016-05-07T02:00:17.250Z,63.1
2016-05-07T02:01:17.283Z,63.57
2016-05-07T02:02:17.317Z,63.73
2016-05-07T02:03:17.352Z,63.67
2016-05-07T02:04:17.385Z,63.76
2016-05-07T02:05:17.435Z,63.73
2016-05-07T02:06:17.469Z,64.12
2016-05-07T02:07:17.331Z,63.57
2016-05-07T02:08:17.365Z,63.76
2016-05-07T02:09:17.571Z,64.12
2016-05-07T02:10:17.651Z,64.15
2016-05-07T02:11:17.638Z,63.86
2016-05-07T02:12:17.516Z,63.86
2016-05-07T02:13:17.722Z,63.86
2016-05-07T02:14:17.756Z,64.4
2016-05-07T02:15:17.790Z,64.4
2016-05-07T02:16:17.823Z,64.12
2016-05-07T02:17:17.858Z,63.93
2016-05-07T02:18:17.892Z,64.43
2016-05-07T02:19:17.926Z,65.01
2016-05-07T02:20:17.975Z,64.22
2016-05-07T02:21:18.025Z,64.69
2016-05-07T02:22:17.886Z,64.12
2016-05-07T02:23:18.093Z,63.93
2016-05-07T02:24:18.129Z,64.31
2016-05-07T02:25:18.148Z,65.26
2016-05-07T02:26:18.042Z,64.31
2016-05-07T02:27:18.231Z,63.93
2016-05-07T02:28:18.265Z,64.02
2016-05-07T02:29:18.300Z,64.59
2016-05-07T02:30:18.334Z,65.64
2016-05-07T02:31:18.367Z,64.88
2016-05-07T02:32:18.400Z,65.64
2016-05-07T02:33:18.435Z,65.45
2016-05-07T02:34:18.485Z,66.28
2016-05-07T02:35:18.519Z,67.05
2016-05-07T02:36:18.537Z,67.81
2016-05-07T02:37:18.571Z,67.52
2016-05-07T02:38:18.635Z,68
2016-05-07T02:39:18.498Z,68.19
2016-05-07T02:40:18.689Z,68.48
2016-05-07T02:41:18.722Z,68.73
2016-05-07T02:42:19.194Z,68.73
2016-05-07T02:43:18.805Z,68.38
2016-05-07T02:44:18.683Z,68.38
2016-05-07T02:45:18.718Z,69.11
2016-05-07T02:46:18.908Z,69.34
2016-05-07T02:47:18.941Z,68.54
2016-05-07T02:48:18.976Z,68.19
2016-05-07T02:49:19.024Z,67.81
2016-05-07T02:50:18.887Z,67.24
2016-05-07T02:51:19.093Z,67.52
2016-05-07T02:52:19.127Z,67.43
2016-05-07T02:53:19.160Z,66.85
2016-05-07T02:54:19.195Z,66.66
2016-05-07T02:55:19.245Z,66.85
2016-05-07T02:56:19.262Z,67.14
2016-05-07T02:57:19.140Z,67.43
2016-05-07T02:58:19.346Z,66.76
2016-05-07T02:59:19.223Z,66.89
2016-05-07T03:00:19.429Z,68
2016-05-07T03:01:19.448Z,68.1
2016-05-07T03:02:19.481Z,67.24
2016-05-07T03:03:19.375Z,67.43
2016-05-07T03:04:19.581Z,66.95
2016-05-07T03:05:19.600Z,66.47
2016-05-07T03:06:19.477Z,66.38
2016-05-07T03:07:19.652Z,66.56
2016-05-07T03:08:19.700Z,66.99
2016-05-07T03:09:19.735Z,66.56
2016-05-07T03:10:19.769Z,66.56
2016-05-07T03:11:19.850Z,67.52
2016-05-07T03:12:19.977Z,67.62
2016-05-07T03:13:19.871Z,67.05
2016-05-07T03:14:19.904Z,66.76
2016-05-07T03:15:19.939Z,67.52
2016-05-07T03:16:19.972Z,67.24
2016-05-07T03:17:20.022Z,66.95
2016-05-07T03:18:20.056Z,67.91
2016-05-07T03:19:19.934Z,68
2016-05-07T03:20:20.139Z,68.48
2016-05-07T03:21:20.002Z,68.86
2016-05-07T03:22:20.192Z,69.4
2016-05-07T03:23:20.241Z,69.68
2016-05-07T03:24:20.275Z,68.73
2016-05-07T03:25:20.154Z,68.73
2016-05-07T03:26:20.343Z,68.86
2016-05-07T03:27:20.221Z,69.11
2016-05-07T03:28:20.426Z,69.4
2016-05-07T03:29:20.445Z,69.31
2016-05-07T03:30:20.478Z,69.78
2016-05-07T03:31:20.529Z,69.97
2016-05-07T03:32:20.562Z,69.59
2016-05-07T03:33:20.581Z,69.31
2016-05-07T03:34:20.630Z,68.63
2016-05-07T03:35:20.649Z,68.67
2016-05-07T03:36:20.683Z,68.19
2016-05-07T03:37:20.733Z,68.19
2016-05-07T03:38:20.766Z,68
2016-05-07T03:39:20.800Z,68.29
2016-05-07T03:40:20.849Z,68.48
2016-05-07T03:41:20.869Z,68.44
2016-05-07T03:42:20.917Z,68.19
2016-05-07T03:43:20.951Z,68.1
2016-05-07T03:44:20.985Z,68.19
2016-05-07T03:45:21.004Z,68.29
2016-05-07T03:46:21.053Z,67.81
2016-05-07T03:47:21.088Z,68.1
2016-05-07T03:48:21.121Z,68
2016-05-07T03:49:21.171Z,68.1
2016-05-07T03:50:21.189Z,68
2016-05-07T03:51:21.223Z,68.19
2016-05-07T03:52:21.257Z,68
2016-05-07T03:53:21.290Z,67.81
2016-05-07T03:54:21.340Z,68.1
2016-05-07T03:55:21.359Z,68.38
2016-05-07T03:56:21.408Z,68.1
2016-05-07T03:57:21.474Z,67.91
2016-05-07T03:58:21.476Z,68.38
2016-05-07T03:59:21.354Z,68.48
2016-05-07T04:00:21.544Z,68.38
2016-05-07T04:01:21.578Z,68.44
2016-05-07T04:02:21.612Z,68.48
2016-05-07T04:03:21.677Z,68.38
2016-05-07T04:04:21.680Z,68.1
2016-05-07T04:05:21.558Z,68.38
2016-05-07T04:06:21.748Z,68.38
2016-05-07T04:07:21.797Z,68
2016-05-07T04:08:21.831Z,68.48
2016-05-07T04:09:21.865Z,68.57
2016-05-07T04:10:21.899Z,68.1
2016-05-07T04:11:21.777Z,68.1
2016-05-07T04:12:21.998Z,67.62
2016-05-07T04:13:22.000Z,67.43
2016-05-07T04:14:22.035Z,68.29
2016-05-07T04:15:21.913Z,68.86
2016-05-07T04:16:22.118Z,69.62
2016-05-07T04:17:22.152Z,70.16
2016-05-07T04:18:22.014Z,70.64
2016-05-07T04:19:22.221Z,69.4
2016-05-07T04:20:22.254Z,69.49
2016-05-07T04:21:22.288Z,69.87
2016-05-07T04:22:22.321Z,69.4
2016-05-07T04:23:22.356Z,68.54
2016-05-07T04:24:22.390Z,68.73
2016-05-07T04:25:22.424Z,68.63
2016-05-07T04:26:22.473Z,68.73
2016-05-07T04:27:22.960Z,68.38
2016-05-07T04:28:22.541Z,68
2016-05-07T04:29:22.575Z,67.62
2016-05-07T04:30:22.609Z,67.43
2016-05-07T04:31:22.643Z,66.85
2016-05-07T04:32:22.676Z,65.74
2016-05-07T04:33:22.711Z,65.26
2016-05-07T04:34:22.745Z,64.15
2016-05-07T04:35:22.778Z,63.39
2016-05-07T04:36:22.813Z,62.17
2016-05-07T04:37:22.862Z,61.41
2016-05-07T04:38:22.739Z,60
2016-05-07T04:39:22.775Z,59.14
2016-05-07T04:40:22.948Z,58.5
2016-05-07T04:41:22.997Z,59.27
2016-05-07T04:42:23.032Z,60.38
2016-05-07T04:43:23.067Z,60.93
2016-05-07T04:44:23.100Z,60.83
2016-05-07T04:45:23.133Z,61.98
2016-05-07T04:46:33.342Z,63.19
2016-05-07T04:47:23.217Z,63.29
2016-05-07T04:48:23.095Z,63.48
2016-05-07T04:49:23.129Z,63.96
2016-05-07T04:50:23.335Z,64.72
2016-05-07T04:51:23.353Z,64.05
2016-05-07T04:52:23.402Z,63.86
2016-05-07T04:53:23.437Z,63.86
2016-05-07T04:54:23.470Z,63.96
2016-05-07T04:55:23.504Z,63.76
2016-05-07T04:56:23.538Z,64.53
2016-05-07T04:57:23.573Z,64.31
2016-05-07T04:58:23.606Z,64.69
2016-05-07T04:59:23.640Z,64.88
2016-05-07T05:00:23.674Z,64.22
2016-05-07T05:01:23.709Z,64.82
2016-05-07T05:02:23.742Z,64.78
2016-05-07T05:03:23.792Z,64.59
2016-05-07T05:04:23.825Z,63.26
2016-05-07T05:05:23.860Z,63.67
2016-05-07T05:06:23.893Z,63.19
2016-05-07T05:07:23.927Z,63.57
2016-05-07T05:08:23.961Z,64.53
2016-05-07T05:09:24.011Z,65.07
2016-05-07T05:10:24.045Z,65.17
2016-05-07T05:11:24.079Z,64.69
2016-05-07T05:12:24.269Z,64.69
2016-05-07T05:13:24.147Z,65.26
2016-05-07T05:14:24.180Z,64.69
2016-05-07T05:15:24.214Z,63.83
2016-05-07T05:16:24.280Z,63.86
2016-05-07T05:17:24.298Z,64.62
2016-05-07T05:18:24.332Z,64.34
2016-05-07T05:19:24.382Z,64.82
2016-05-07T05:20:24.400Z,63.86
2016-05-07T05:21:24.433Z,64.15
2016-05-07T05:22:24.328Z,63.48
2016-05-07T05:23:24.518Z,64.05
2016-05-07T05:24:24.551Z,64.15
2016-05-07T05:25:24.585Z,63.48
2016-05-07T05:26:24.635Z,63.67
2016-05-07T05:27:24.668Z,63.96
2016-05-07T05:28:24.546Z,63.57
2016-05-07T05:29:24.737Z,64.05
2016-05-07T05:30:24.615Z,65.39
2016-05-07T05:31:24.804Z,64.82
2016-05-07T05:32:24.838Z,63.76
2016-05-07T05:33:24.888Z,63.48
2016-05-07T05:34:24.906Z,63.86
2016-05-07T05:35:24.956Z,63.29
2016-05-07T05:36:24.990Z,63.29
2016-05-07T05:37:25.039Z,63.19
2016-05-07T05:38:25.073Z,63.29
2016-05-07T05:39:25.107Z,62.94
2016-05-07T05:40:25.125Z,63.32
2016-05-07T05:41:25.176Z,61.98
2016-05-07T05:42:25.537Z,61.12
2016-05-07T05:43:25.242Z,60.35
2016-05-07T05:44:25.278Z,60.45
2016-05-07T05:45:25.327Z,60.16
2016-05-07T05:46:25.361Z,60.83
2016-05-07T05:47:25.394Z,60.45
2016-05-07T05:48:25.428Z,60.26
2016-05-07T05:49:25.463Z,60
2016-05-07T05:50:25.511Z,59.62
2016-05-07T05:51:25.546Z,59.33
2016-05-07T05:52:25.580Z,59.05
2016-05-07T05:53:25.614Z,58.86
2016-05-07T05:54:25.647Z,59.05
2016-05-07T05:55:25.697Z,59.27
2016-05-07T05:56:25.716Z,59.17
2016-05-07T05:57:25.780Z,58.31
2016-05-07T05:58:25.799Z,58.88
2016-05-07T05:59:25.833Z,58.02
2016-05-07T06:00:25.883Z,58.31
2016-05-07T06:01:25.901Z,58.02
2016-05-07T06:02:25.951Z,58.31
2016-05-07T06:03:25.984Z,58.22
2016-05-07T06:04:26.018Z,57.83
2016-05-07T06:05:26.052Z,58.12
2016-05-07T06:06:26.102Z,58.79
2016-05-07T06:07:26.136Z,57.92
2016-05-07T06:08:26.014Z,57.83
2016-05-07T06:09:26.204Z,57.73
2016-05-07T06:10:26.238Z,58.31
2016-05-07T06:11:26.272Z,57.64
2016-05-07T06:12:27.399Z,57.45
2016-05-07T06:13:26.355Z,58.5
2016-05-07T06:14:26.389Z,57.95
2016-05-07T06:15:26.423Z,57.19
2016-05-07T06:16:26.473Z,57.95
2016-05-07T06:17:26.366Z,57.09
2016-05-07T06:18:26.541Z,55.94
2016-05-07T06:19:26.575Z,55.46
2016-05-07T06:20:26.625Z,56.52
2016-05-07T06:21:26.658Z,56.99
2016-05-07T06:22:26.692Z,56.81
2016-05-07T06:23:26.616Z,56.99
2016-05-07T06:24:27.041Z,56.42
2016-05-07T06:25:26.794Z,56.71
2016-05-07T06:26:26.843Z,56.42
2016-05-07T06:27:27.518Z,55.75
2016-05-07T06:28:26.911Z,55.3
2016-05-07T06:29:26.945Z,55.18
2016-05-07T06:30:26.979Z,54.72
2016-05-07T06:31:27.028Z,54.44
2016-05-07T06:32:27.062Z,54.63
2016-05-07T06:33:27.097Z,54.44
2016-05-07T06:34:26.990Z,55.11
2016-05-07T06:35:27.179Z,55.23
2016-05-07T06:36:27.215Z,55.11
2016-05-07T06:37:27.248Z,54.91
2016-05-07T06:38:27.282Z,55.49
2016-05-07T06:39:27.331Z,55.21
2016-05-07T06:40:27.365Z,55.11
2016-05-07T06:41:27.399Z,55.3
2016-05-07T06:42:27.480Z,55.3
2016-05-07T06:43:27.483Z,54.56
2016-05-07T06:44:27.531Z,54.94
2016-05-07T06:45:27.550Z,55.8
2016-05-07T06:46:27.584Z,54.85
2016-05-07T06:47:27.634Z,54.75
2016-05-07T06:48:27.668Z,54.75
2016-05-07T06:49:27.702Z,54.56
2016-05-07T06:50:27.736Z,53.12
2016-05-07T06:51:27.770Z,52.45
2016-05-07T06:52:27.819Z,52.55
2016-05-07T06:53:27.853Z,53.22
2016-05-07T06:54:27.888Z,52.93
2016-05-07T06:55:27.936Z,52.74
2016-05-07T06:56:27.971Z,52.83
2016-05-07T06:57:28.238Z,52.26
2016-05-07T06:58:28.039Z,52.76
2016-05-07T06:59:28.088Z,52.48
2016-05-07T07:00:28.121Z,53.44
2016-05-07T07:01:28.156Z,53.24
2016-05-07T07:02:28.205Z,53.05
2016-05-07T07:03:28.240Z,52.48
2016-05-07T07:04:28.118Z,52.28
2016-05-07T07:05:28.307Z,52.57
2016-05-07T07:06:28.341Z,52.57
2016-05-07T07:07:28.375Z,53.63
2016-05-07T07:08:28.426Z,52.48
2016-05-07T07:09:28.459Z,52.67
2016-05-07T07:10:28.492Z,52.67
2016-05-07T07:11:28.559Z,52
2016-05-07T07:12:28.451Z,52.38
2016-05-07T07:13:28.626Z,53.05
2016-05-07T07:14:28.659Z,52.28
2016-05-07T07:15:28.694Z,53.27
2016-05-07T07:16:28.571Z,52.5
2016-05-07T07:17:28.606Z,51.64
2016-05-07T07:18:28.812Z,51.54
2016-05-07T07:19:28.689Z,51.45
2016-05-07T07:20:28.878Z,50.61
2016-05-07T07:21:28.913Z,50.8
2016-05-07T07:22:28.963Z,51.83
2016-05-07T07:23:28.997Z,50.9
2016-05-07T07:24:28.875Z,51.76
2016-05-07T07:25:29.080Z,50.7
2016-05-07T07:26:29.114Z,50.2
2016-05-07T07:27:29.163Z,50.39
2016-05-07T07:28:29.182Z,50.32
2016-05-07T07:29:29.231Z,50.9
2016-05-07T07:30:29.266Z,50.61
2016-05-07T07:31:29.144Z,50.51
2016-05-07T07:32:29.333Z,50.23
2016-05-07T07:33:29.382Z,49.55
2016-05-07T07:34:29.432Z,50.03
2016-05-07T07:35:29.294Z,49.36
2016-05-07T07:36:29.501Z,48.13
2016-05-07T07:37:29.535Z,48.13
2016-05-07T07:38:29.568Z,47.3
2016-05-07T07:39:29.446Z,47.39
2016-05-07T07:40:29.651Z,47.77
2016-05-07T07:41:29.685Z,47.51
2016-05-07T07:42:29.829Z,47.22
2016-05-07T07:43:29.770Z,46.26
2016-05-07T07:44:29.647Z,47.39
2016-05-07T07:45:29.837Z,46.16
2016-05-07T07:46:29.886Z,44.84
2016-05-07T07:47:29.764Z,45.03
2016-05-07T07:48:29.814Z,44.17
2016-05-07T07:49:30.004Z,43.99
2016-05-07T07:50:30.038Z,43.13
2016-05-07T07:51:30.072Z,42.19
2016-05-07T07:52:30.121Z,39.72
2016-05-07T07:53:30.156Z,36.3
2016-05-07T07:54:30.205Z,33.55
2016-05-07T07:55:30.239Z,31.74
2016-05-07T07:56:30.289Z,30.89
2016-05-07T07:57:30.744Z,30.13
2016-05-07T07:58:30.372Z,29.28
2016-05-07T07:59:30.405Z,28.91
2016-05-07T08:00:30.455Z,28.43
2016-05-07T08:01:30.333Z,29.98
2016-05-07T08:02:30.539Z,31.99
2016-05-07T08:03:30.573Z,32.23
2016-05-07T08:04:30.466Z,33.29
2016-05-07T08:05:30.671Z,32.04
2016-05-07T08:06:30.722Z,31.96
2016-05-07T08:07:30.755Z,33.59
2016-05-07T08:08:30.633Z,33.37
2016-05-07T08:09:30.839Z,33.69
2016-05-07T08:10:30.904Z,32.51
2016-05-07T08:11:30.938Z,32.33
2016-05-07T08:12:31.018Z,32.23
2016-05-07T08:13:31.021Z,30.69
2016-05-07T08:14:30.915Z,31.49
2016-05-07T08:15:31.105Z,31.28
2016-05-07T08:16:31.155Z,29.47
2016-05-07T08:17:31.220Z,28.63
2016-05-07T08:18:31.113Z,29.02
2016-05-07T08:19:31.287Z,28.91
2016-05-07T08:20:31.181Z,28.72
2016-05-07T08:21:31.387Z,27.78
2016-05-07T08:22:31.437Z,27.19
2016-05-07T08:23:31.470Z,27.11
2016-05-07T08:24:31.550Z,29.43
2016-05-07T08:25:31.585Z,29.1
2016-05-07T08:26:31.620Z,27.56
2016-05-07T08:27:31.872Z,27.97
2016-05-07T08:28:31.561Z,25.46
2016-05-07T08:29:31.757Z,26.65
2016-05-07T08:30:31.849Z,28.18
2016-05-07T08:31:31.943Z,28.05
2016-05-07T08:32:32.035Z,29.6
2016-05-07T08:33:32.127Z,27.94
2016-05-07T08:34:32.201Z,26.42
2016-05-07T08:35:32.281Z,25.76
2016-05-07T08:36:32.347Z,27.14
2016-05-07T08:37:32.396Z,28.47
2016-05-07T08:38:32.476Z,28.83
2016-05-07T08:39:32.368Z,27.28
2016-05-07T08:40:32.580Z,27
2016-05-07T08:41:32.479Z,27.87
2016-05-07T08:42:32.534Z,28.83
2016-05-07T08:43:32.589Z,29.21
2016-05-07T08:44:32.629Z,29.48
2016-05-07T08:45:32.837Z,29.28
2016-05-07T08:46:32.904Z,28.13
2016-05-07T08:47:32.955Z,27.86
2016-05-07T08:48:33.006Z,28.25
2016-05-07T08:49:33.043Z,27.87
2016-05-07T08:50:33.109Z,28.44
2016-05-07T08:51:33.143Z,28.83
2016-05-07T08:52:33.194Z,30.07
2016-05-07T08:53:33.244Z,30.82
2016-05-07T08:54:33.294Z,33.42
2016-05-07T08:55:33.343Z,32.62
2016-05-07T08:56:33.410Z,33.18
2016-05-07T08:57:33.538Z,32.31
2016-05-07T08:58:33.494Z,30.79
2016-05-07T08:59:33.544Z,29.85
2016-05-07T09:00:33.577Z,30.05
2016-05-07T09:01:33.627Z,29.85
2016-05-07T09:02:33.677Z,30.34
2016-05-07T09:03:33.726Z,31.1
2016-05-07T09:04:33.777Z,29.66
2016-05-07T09:05:33.826Z,31.28
2016-05-07T09:06:33.875Z,32.79
2016-05-07T09:07:33.768Z,32.21
2016-05-07T09:08:33.990Z,31.93
2016-05-07T09:09:34.008Z,33.29
2016-05-07T09:10:34.058Z,32.33
2016-05-07T09:11:34.107Z,30.13
2016-05-07T09:12:34.220Z,30.16
2016-05-07T09:13:34.190Z,31.02
2016-05-07T09:14:34.241Z,29.17
2016-05-07T09:15:34.290Z,28.23
2016-05-07T09:16:34.340Z,27.18
2016-05-07T09:17:34.373Z,27.1
2016-05-07T09:18:34.423Z,27.4
2016-05-07T09:19:34.473Z,26.23
2016-05-07T09:20:34.367Z,25.86
2016-05-07T09:21:34.572Z,24.61
2016-05-07T09:22:34.605Z,25.49
2016-05-07T09:23:34.656Z,25.48
2016-05-07T09:24:34.705Z,26.65
2016-05-07T09:25:34.739Z,26.06
2016-05-07T09:26:34.804Z,24.82
2016-05-07T09:27:34.853Z,25.02
2016-05-07T09:28:34.888Z,25.58
2016-05-07T09:29:34.937Z,26.17
2016-05-07T09:30:34.986Z,25.48
2016-05-07T09:31:35.067Z,25.09
2016-05-07T09:32:35.085Z,23.95
2016-05-07T09:33:35.135Z,24.94
2016-05-07T09:34:35.185Z,24.35
2016-05-07T09:35:35.235Z,24.56
2016-05-07T09:36:35.285Z,24.74
2016-05-07T09:37:35.333Z,26.08
2016-05-07T09:38:35.383Z,25.78
2016-05-07T09:39:35.276Z,26.18
2016-05-07T09:40:35.482Z,25.58
2016-05-07T09:41:35.532Z,24.73
2016-05-07T09:42:35.582Z,24.06
2016-05-07T09:43:35.631Z,24.45
2016-05-07T09:44:35.681Z,25.6
2016-05-07T09:45:35.574Z,25.3
2016-05-07T09:46:35.624Z,25.58
2016-05-07T09:47:35.829Z,26.64
2016-05-07T09:48:35.879Z,26.82
2016-05-07T09:49:35.912Z,25.37
2016-05-07T09:50:35.978Z,24.62
2016-05-07T09:51:36.028Z,24.44
2016-05-07T09:52:35.921Z,24.74
2016-05-07T09:53:36.126Z,24.54
2016-05-07T09:54:36.176Z,25.51
2016-05-07T09:55:36.225Z,25.48
2016-05-07T09:56:36.276Z,25.49
2016-05-07T09:57:36.184Z,27.04
2016-05-07T09:58:36.375Z,25.67
2016-05-07T09:59:36.424Z,26.64
2016-05-07T10:00:36.474Z,26.92
2016-05-07T10:01:36.523Z,27.11
2016-05-07T10:02:36.573Z,26.33
2016-05-07T10:03:36.622Z,24.99
2016-05-07T10:04:36.688Z,25.19
2016-05-07T10:05:36.738Z,24.41
2016-05-07T10:06:36.786Z,22.78
2016-05-07T10:07:36.821Z,22.41
2016-05-07T10:08:36.714Z,22.81
2016-05-07T10:09:36.779Z,24.37
2016-05-07T10:10:36.985Z,25.3
2016-05-07T10:11:37.035Z,25.49
2016-05-07T10:12:37.084Z,25.69
2016-05-07T10:13:37.149Z,25.29
2016-05-07T10:14:37.183Z,23.25
2016-05-07T10:15:37.232Z,24.05
2016-05-07T10:16:37.298Z,24.02
2016-05-07T10:17:37.348Z,23.65
2016-05-07T10:18:37.398Z,24.13
2016-05-07T10:19:37.446Z,22.28
2016-05-07T10:20:37.496Z,23.39
2016-05-07T10:21:37.546Z,23.94
2016-05-07T10:22:37.595Z,24.5
2016-05-07T10:23:37.644Z,22.38
2016-05-07T10:24:37.709Z,21.23
2016-05-07T10:25:37.745Z,22.12
2016-05-07T10:26:37.809Z,23.18
2016-05-07T10:27:37.858Z,22.78
2016-05-07T10:28:37.904Z,24.26
2016-05-07T10:29:37.953Z,25.58
2016-05-07T10:30:38.002Z,24.61
2016-05-07T10:31:38.053Z,24.9
2016-05-07T10:32:38.117Z,26.43
2016-05-07T10:33:38.167Z,24.96
2016-05-07T10:34:38.216Z,25.08
2016-05-07T10:35:38.251Z,23.44
2016-05-07T10:36:38.316Z,22.58
2016-05-07T10:37:38.365Z,21.72
2016-05-07T10:38:38.415Z,22.12
2016-05-07T10:39:38.480Z,21.73
2016-05-07T10:40:38.513Z,20.19
2016-05-07T10:41:38.563Z,20.87
2016-05-07T10:42:38.707Z,20.28
2016-05-07T10:43:38.694Z,20.39
2016-05-07T10:44:38.727Z,19.62
2016-05-07T10:45:38.762Z,18.84
2016-05-07T10:46:38.843Z,18.93
2016-05-07T10:47:38.876Z,18.75
2016-05-07T10:48:38.941Z,18.82
2016-05-07T10:49:38.835Z,18.73
2016-05-07T10:50:39.041Z,19.41
2016-05-07T10:51:38.934Z,21.15
2016-05-07T10:52:39.140Z,20.09
2016-05-07T10:53:39.190Z,19.41
2016-05-07T10:54:39.254Z,18.93
2016-05-07T10:55:39.304Z,17.18
2016-05-07T10:56:39.353Z,19.14
2016-05-07T10:57:40.154Z,19.78
2016-05-07T10:58:39.468Z,18.52
2016-05-07T10:59:39.533Z,17.09
2016-05-07T11:00:39.568Z,15.91
2016-05-07T11:01:39.461Z,16.6
2016-05-07T11:02:39.666Z,17.17
2016-05-07T11:03:39.731Z,16.58
2016-05-07T11:04:39.782Z,16.1
2016-05-07T11:05:39.831Z,16.3
2016-05-07T11:06:39.896Z,15.53
2016-05-07T11:07:39.931Z,14.95
2016-05-07T11:08:39.980Z,16.78
2016-05-07T11:09:40.044Z,16.19
2016-05-07T11:10:40.094Z,17.36
2016-05-07T11:11:40.144Z,17.8
2016-05-07T11:12:40.210Z,17.44
2016-05-07T11:13:40.258Z,18.23
2016-05-07T11:14:40.308Z,18.8
2016-05-07T11:15:40.358Z,18.52
2016-05-07T11:16:40.266Z,18.78
2016-05-07T11:17:40.473Z,18.01
2016-05-07T11:18:40.366Z,18.62
2016-05-07T11:19:40.588Z,17.44
2016-05-07T11:20:40.637Z,17.35
2016-05-07T11:21:40.687Z,16.67
2016-05-07T11:22:40.736Z,16.59
2016-05-07T11:23:41.301Z,16.68
2016-05-07T11:24:40.867Z,17.46
2016-05-07T11:25:40.901Z,17.35
2016-05-07T11:26:40.950Z,17.25
2016-05-07T11:27:41.218Z,16.17
2016-05-07T11:28:41.049Z,15.5
2016-05-07T11:29:41.114Z,14.53
2016-05-07T11:30:41.164Z,14.73
2016-05-07T11:31:41.057Z,14.26
2016-05-07T11:32:41.278Z,14.07
2016-05-07T11:33:41.329Z,14.83
2016-05-07T11:34:41.378Z,14.24
2016-05-07T11:35:41.443Z,15.61
2016-05-07T11:36:41.492Z,16.58
2016-05-07T11:37:41.541Z,17.53
2016-05-07T11:38:41.608Z,17.05
2016-05-07T11:39:41.657Z,15.97
2016-05-07T11:40:41.706Z,15.5
2016-05-07T11:41:41.755Z,15.88
2016-05-07T11:42:41.650Z,16.27
2016-05-07T11:43:41.871Z,16.37
2016-05-07T11:44:41.920Z,16.67
2016-05-07T11:45:42.002Z,16.17
2016-05-07T11:46:42.019Z,15.67
2016-05-07T11:47:42.085Z,15.68
2016-05-07T11:48:42.134Z,15.48
2016-05-07T11:49:42.184Z,15.58
2016-05-07T11:50:42.249Z,14.52
2016-05-07T11:51:42.315Z,14.43
2016-05-07T11:52:42.192Z,14.62
2016-05-07T11:53:42.413Z,13.85
2016-05-07T11:54:42.307Z,15.01
2016-05-07T11:55:42.340Z,13.45
2016-05-07T11:56:42.578Z,14.23
2016-05-07T11:57:43.001Z,14.23
2016-05-07T11:58:42.521Z,13.26
2016-05-07T11:59:42.726Z,13.66
2016-05-07T12:00:42.776Z,14.26
2016-05-07T12:01:42.841Z,14.44
2016-05-07T12:02:42.890Z,15
2016-05-07T12:03:42.940Z,14.03
2016-05-07T12:04:43.005Z,14.34
2016-05-07T12:05:43.070Z,14.05
2016-05-07T12:06:43.120Z,14.15
2016-05-07T12:07:43.170Z,14.17
2016-05-07T12:08:43.063Z,13.46
2016-05-07T12:09:43.269Z,12.89
2016-05-07T12:10:43.319Z,12.21
2016-05-07T12:11:43.383Z,14.65
2016-05-07T12:12:43.589Z,15.88
2016-05-07T12:13:43.483Z,15.86
2016-05-07T12:14:43.547Z,15.58
2016-05-07T12:15:43.597Z,14.32
2016-05-07T12:16:43.491Z,14.52
2016-05-07T12:17:43.712Z,14.42
2016-05-07T12:18:43.762Z,14.43
2016-05-07T12:19:43.655Z,14.83
2016-05-07T12:20:43.877Z,15.32
2016-05-07T12:21:43.926Z,15.88
2016-05-07T12:22:43.976Z,15.98
2016-05-07T12:23:44.041Z,15.88
2016-05-07T12:24:43.934Z,15.7
2016-05-07T12:25:44.140Z,16.19
2016-05-07T12:26:44.189Z,18.31
2016-05-07T12:27:44.099Z,17.6
2016-05-07T12:28:44.304Z,18.6
2016-05-07T12:29:44.354Z,18.59
2016-05-07T12:30:44.419Z,18.48
2016-05-07T12:31:44.312Z,16.84
2016-05-07T12:32:44.534Z,16.09
2016-05-07T12:33:44.583Z,16.19
2016-05-07T12:34:44.634Z,15.89
2016-05-07T12:35:44.682Z,15.9
2016-05-07T12:36:44.748Z,15.7
2016-05-07T12:37:44.797Z,15.7
2016-05-07T12:38:44.847Z,16.27
2016-05-07T12:39:44.911Z,16.27
2016-05-07T12:40:44.947Z,16.17
2016-05-07T12:41:45.011Z,15.97
2016-05-07T12:42:45.061Z,18.21
2016-05-07T12:43:45.125Z,18.19
2016-05-07T12:44:45.175Z,17.5
2016-05-07T12:45:45.225Z,17.6
2016-05-07T12:46:45.291Z,18.38
2016-05-07T12:47:45.340Z,17.12
2016-05-07T12:48:45.389Z,16.35
2016-05-07T12:49:45.439Z,17.7
2016-05-07T12:50:45.488Z,18.27
2016-05-07T12:51:45.554Z,17.88
2016-05-07T12:52:45.587Z,17.21
2016-05-07T12:53:45.652Z,16.44
2016-05-07T12:54:45.545Z,16.44
2016-05-07T12:55:45.752Z,16.93
2016-05-07T12:56:45.801Z,16.06